Time;durP1;ratioP1;P1;durP2;ratioP2;P2;SDS_P1;SDS_P2;PMS_P1;PMS_P2;Temp;Humidity;BMP_temperature;BMP_pressure;BME280_temperature;BME280_humidity;BME280_pressure;Samples;Min_cycle;Max_cycle;Signal;HPM_P1;HPM_P2
2023/04/14 00:03:04;;;;;;;47.40;43.10;;;;;;;9.91;73.03;99546.16;110982;1262;23618;-79
2023/04/14 00:05:43;;;;;;;45.90;41.50;;;;;;;9.91;72.88;99540.94;111400;1255;22714;-79
2023/04/14 00:08:23;;;;;;;44.30;40.30;;;;;;;9.92;72.93;99540.73;110961;1261;22024;-78
2023/04/14 00:10:56;;;;;;;47.70;43.00;;;;;;;9.90;72.89;99539.44;110720;1261;21961;-79
2023/04/14 00:13:26;;;;;;;39.80;36.10;;;;;;;9.91;73.01;99535.77;110835;1261;21955;-79
2023/04/14 00:16:03;;;;;;;42.50;38.80;;;;;;;9.92;73.10;99538.67;110715;1261;21965;-78
2023/04/14 00:18:36;;;;;;;43.60;39.40;;;;;;;9.93;72.99;99536.70;110770;1261;22259;-79
2023/04/14 00:21:12;;;;;;;44.40;40.10;;;;;;;9.94;73.14;99538.73;110742;1261;21965;-78
2023/04/14 00:23:45;;;;;;;41.10;36.80;;;;;;;9.95;73.12;99536.95;111014;1261;24102;-79
2023/04/14 00:26:17;;;;;;;41.70;37.70;;;;;;;9.95;73.10;99533.66;110725;1261;22892;-78
2023/04/14 00:28:47;;;;;;;42.50;38.40;;;;;;;9.94;73.07;99529.34;110633;1261;22722;-78
2023/04/14 00:31:31;;;;;;;44.50;40.00;;;;;;;9.94;73.04;99526.42;110826;1261;23715;-79
2023/04/14 00:34:07;;;;;;;43.00;38.90;;;;;;;9.91;73.11;99527.23;110640;1262;22256;-79
2023/04/14 00:36:40;;;;;;;44.80;40.50;;;;;;;9.90;73.07;99527.08;110636;1256;21995;-78
2023/04/14 00:39:13;;;;;;;45.80;41.60;;;;;;;9.91;73.03;99524.79;110784;1261;22021;-78
2023/04/14 00:41:56;;;;;;;;;;;;;;;9.92;73.12;99525.27;110632;1261;21928;-78
2023/04/14 00:44:46;;;;;;;48.90;44.00;;;;;;;9.82;73.33;99519.66;110141;1265;23615;-78
2023/04/14 00:47:25;;;;;;;48.70;44.10;;;;;;;9.82;73.32;99514.47;110197;1269;22090;-78
2023/04/14 00:50:09;;;;;;;50.20;45.20;;;;;;;9.82;73.28;99512.38;109710;1269;21988;-79
2023/04/14 00:52:51;;;;;;;50.30;45.20;;;;;;;9.83;73.32;99510.94;109706;1270;23699;-78
2023/04/14 00:55:31;;;;;;;47.60;43.10;;;;;;;9.84;73.18;99513.15;109696;1270;22073;-78
2023/04/14 00:58:26;;;;;;;49.70;44.90;;;;;;;9.84;73.28;99507.57;109721;1264;22058;-77
2023/04/14 01:01:19;;;;;;;47.20;42.80;;;;;;;9.86;73.41;99501.25;110504;1264;21978;-78
2023/04/14 01:03:57;;;;;;;45.30;41.00;;;;;;;9.84;73.47;99500.11;110790;1260;23687;-78
2023/04/14 01:06:33;;;;;;;48.20;43.40;;;;;;;9.85;73.42;99497.27;111102;1255;22722;-78
2023/04/14 01:09:24;;;;;;;50.00;45.00;;;;;;;9.86;73.41;99497.26;111174;1255;24364;-78
2023/04/14 01:12:23;;;;;;;51.00;45.80;;;;;;;9.87;73.38;99496.66;111046;1255;21923;-78
2023/04/14 01:15:42;;;;;;;51.90;46.60;;;;;;;9.87;73.54;99501.38;111336;1255;21983;-77
2023/04/14 01:18:43;;;;;;;52.50;46.90;;;;;;;9.87;73.66;99498.61;110661;1263;24287;-77
2023/04/14 01:21:25;;;;;;;51.70;46.50;;;;;;;9.88;73.75;99498.89;109909;1262;22756;-77
2023/04/14 01:24:40;;;;;;;49.70;44.80;;;;;;;9.91;73.81;99503.26;109834;1269;23129;-79
2023/04/14 01:27:41;;;;;;;52.30;46.80;;;;;;;9.91;73.82;99504.96;110115;1262;21752;-77
2023/04/14 01:30:43;;;;;;;51.30;46.00;;;;;;;9.92;73.87;99504.42;109158;1276;21987;-77
2023/04/14 01:33:26;;;;;;;49.40;44.30;;;;;;;9.93;73.88;99505.44;109226;1274;24132;-79
2023/04/14 01:36:07;;;;;;;45.70;41.20;;;;;;;9.95;73.86;99505.64;109230;1267;21982;-79
2023/04/14 01:38:57;;;;;;;41.80;37.80;;;;;;;9.97;73.92;99508.17;109369;1271;22754;-78
2023/04/14 01:41:37;;;;;;;45.20;40.60;;;;;;;9.99;73.92;99509.48;109681;1270;21997;-78
2023/04/14 01:44:23;;;;;;;46.50;41.90;;;;;;;10.00;73.83;99510.48;109550;1271;21977;-79
2023/04/14 01:47:09;;;;;;;46.30;42.00;;;;;;;10.02;73.95;99510.73;109058;1275;22000;-79
2023/04/14 01:49:44;;;;;;;45.50;40.70;;;;;;;10.01;73.70;99510.07;109771;1269;21989;-79
2023/04/14 01:52:18;;;;;;;44.20;39.80;;;;;;;10.01;73.67;99506.60;109702;1269;23038;-80
2023/04/14 01:55:12;;;;;;;46.40;41.80;;;;;;;10.01;73.79;99506.09;110177;1261;22005;-80
2023/04/14 01:57:56;;;;;;;47.60;42.70;;;;;;;10.01;73.62;99508.02;110585;1261;22840;-77
2023/04/14 02:00:40;;;;;;;49.40;44.40;;;;;;;9.98;73.66;99506.55;110371;1264;24559;-80
2023/04/14 02:03:25;;;;;;;51.00;45.70;;;;;;;9.95;73.71;99504.11;110473;1264;22148;-79
2023/04/14 02:06:24;;;;;;;46.30;41.70;;;;;;;9.91;73.73;99508.30;110909;1260;21970;-78
2023/04/14 02:09:12;;;;;;;45.70;41.40;;;;;;;9.86;73.74;99509.07;110743;1260;21972;-78
2023/04/14 02:11:50;;;;;;;45.90;41.70;;;;;;;9.85;73.86;99510.52;110926;1254;22006;-79
2023/04/14 02:14:46;;;;;;;43.90;39.30;;;;;;;9.84;73.93;99513.16;110872;1260;21948;-78
2023/04/14 02:17:25;;;;;;;42.10;38.20;;;;;;;9.85;74.05;99512.44;110789;1253;23024;-79
2023/04/14 02:20:01;;;;;;;42.10;38.10;;;;;;;9.87;74.14;99514.73;111136;1256;21956;-79
2023/04/14 02:22:37;;;;;;;43.10;39.10;;;;;;;9.90;74.25;99515.80;111245;1256;21968;-78
2023/04/14 02:25:12;;;;;;;44.40;40.10;;;;;;;9.92;74.13;99517.13;111055;1256;21957;-79
2023/04/14 02:28:01;;;;;;;40.80;37.10;;;;;;;9.91;74.05;99518.70;111475;1254;22309;-77
2023/04/14 02:31:04;;;;;;;40.70;36.80;;;;;;;9.88;74.02;99518.67;111149;1256;22815;-78
2023/04/14 02:33:53;;;;;;;42.60;38.80;;;;;;;9.89;74.01;99523.86;111008;1256;21960;-79
2023/04/14 02:36:47;;;;;;;40.10;36.40;;;;;;;9.87;73.92;99525.53;111071;1256;21993;-77
2023/04/14 02:39:37;;;;;;;41.00;36.90;;;;;;;9.85;74.02;99521.81;111107;1255;22411;-79
2023/04/14 02:42:24;;;;;;;43.40;39.20;;;;;;;9.83;73.98;99523.97;111266;1255;23784;-78
2023/04/14 02:45:36;;;;;;;43.40;39.50;;;;;;;9.83;74.02;99522.43;111520;1255;21954;-78
2023/04/14 02:48:14;;;;;;;44.40;40.10;;;;;;;9.83;74.22;99525.55;111390;1255;21967;-77
2023/04/14 02:50:58;;;;;;;44.60;40.40;;;;;;;9.84;74.26;99528.95;110944;1260;22825;-78
2023/04/14 02:53:33;;;;;;;41.70;37.50;;;;;;;9.87;74.36;99526.05;110883;1260;23683;-78
2023/04/14 02:56:31;;;;;;;42.80;38.50;;;;;;;9.88;74.33;99517.82;110852;1260;21969;-78
2023/04/14 02:59:12;;;;;;;45.40;41.10;;;;;;;9.89;74.25;99516.72;110668;1260;23033;-78
2023/04/14 03:02:03;;;;;;;45.70;41.60;;;;;;;9.88;74.22;99515.89;110892;1260;22159;-78
2023/04/14 03:04:39;;;;;;;46.00;41.60;;;;;;;9.88;74.20;99516.09;110912;1260;22884;-79
2023/04/14 03:07:52;;;;;;;49.00;44.20;;;;;;;9.87;74.23;99514.40;110837;1260;23119;-79
2023/04/14 03:10:31;;;;;;;51.30;46.30;;;;;;;9.86;74.23;99508.04;111091;1255;23076;-78
2023/04/14 03:13:16;;;;;;;50.70;46.00;;;;;;;9.84;74.15;99503.94;111197;1254;21954;-77
2023/04/14 03:16:05;;;;;;;50.70;46.00;;;;;;;9.81;74.16;99497.13;111214;1254;23761;-77
2023/04/14 03:19:11;;;;;;;53.80;48.80;;;;;;;9.80;74.24;99496.13;111526;1255;23779;-76
2023/04/14 03:22:05;;;;;;;51.40;46.40;;;;;;;9.78;74.38;99487.73;111279;1250;23439;-79
2023/04/14 03:24:57;;;;;;;52.60;47.50;;;;;;;9.75;74.35;99484.71;111361;1255;22407;-78
2023/04/14 03:27:43;;;;;;;52.30;47.10;;;;;;;9.73;74.45;99481.73;111358;1255;21969;-79
2023/04/14 03:30:29;;;;;;;53.80;48.70;;;;;;;9.68;74.43;99480.35;111605;1255;21965;-79
2023/04/14 03:33:10;;;;;;;98.20;89.60;;;;;;;9.68;74.44;99477.95;110744;1260;21972;-79
2023/04/14 03:35:52;;;;;;;93.80;84.80;;;;;;;9.68;74.50;99475.17;111068;1260;23018;-79
2023/04/14 03:38:39;;;;;;;59.30;53.70;;;;;;;9.67;74.59;99471.02;109879;1265;23843;-79
2023/04/14 03:41:20;;;;;;;52.10;47.20;;;;;;;9.69;74.65;99473.04;110490;1265;23030;-79
2023/04/14 03:43:58;;;;;;;53.00;47.90;;;;;;;9.71;74.58;99474.31;110250;1265;21997;-80
2023/04/14 03:46:45;;;;;;;50.90;46.00;;;;;;;9.73;74.66;99474.21;109766;1270;23583;-78
2023/04/14 03:49:26;;;;;;;54.90;49.70;;;;;;;9.74;74.60;99474.89;109656;1270;22271;-78
2023/04/14 03:52:15;;;;;;;55.20;50.10;;;;;;;9.73;74.47;99474.39;109773;1266;21988;-78
2023/04/14 03:55:08;;;;;;;;;;;;;;;;;;;;;
2023/04/14 03:58:27;;;;;;;61.10;55.50;;;;;;;9.69;74.56;99473.21;110215;1265;22281;-79
2023/04/14 04:01:13;;;;;;;61.90;56.10;;;;;;;9.67;74.63;99471.23;110490;1265;23502;-78
2023/04/14 04:03:47;;;;;;;59.30;53.60;;;;;;;9.67;74.57;99468.96;110267;1266;22055;-79
2023/04/14 04:06:25;;;;;;;60.60;54.90;;;;;;;9.66;74.45;99469.35;110047;1266;23900;-79
2023/04/14 04:09:08;;;;;;;61.20;55.50;;;;;;;9.65;74.48;99468.02;109562;1272;23741;-77
2023/04/14 04:11:48;;;;;;;62.30;56.30;;;;;;;9.64;74.52;99471.16;109859;1267;21975;-78
2023/04/14 04:14:34;;;;;;;64.90;58.90;;;;;;;9.62;74.49;99473.36;110125;1267;23855;-76
2023/04/14 04:17:14;;;;;;;61.10;55.20;;;;;;;9.63;74.71;99473.00;110105;1259;21963;-77
2023/04/14 04:20:08;;;;;;;62.00;56.20;;;;;;;9.63;74.70;99469.35;110301;1261;23619;-79
2023/04/14 04:22:53;;;;;;;57.10;51.80;;;;;;;9.61;74.67;99464.38;110884;1261;21964;-79
2023/04/14 04:25:55;;;;;;;61.40;55.60;;;;;;;9.62;74.65;99468.17;111356;1261;21983;-77
2023/04/14 04:28:41;;;;;;;65.80;59.50;;;;;;;9.61;74.65;99463.52;111163;1256;21954;-78
2023/04/14 04:31:23;;;;;;;64.90;58.60;;;;;;;9.64;74.61;99463.38;110972;1255;21997;-78
2023/04/14 04:34:12;;;;;;;71.20;64.70;;;;;;;9.66;74.54;99462.77;111187;1255;23809;-78
2023/04/14 04:36:44;;;;;;;73.90;67.20;;;;;;;9.67;74.65;99462.36;111159;1256;23040;-77
2023/04/14 04:40:09;;;;;;;72.30;65.80;;;;;;;9.69;74.44;99465.40;111242;1255;21963;-78
2023/04/14 04:43:02;;;;;;;71.30;65.00;;;;;;;9.67;74.64;99463.92;110559;1262;21968;-77
2023/04/14 04:46:39;;;;;;;75.30;68.30;;;;;;;9.70;74.70;99466.74;110327;1262;21971;-76
2023/04/14 04:49:09;;;;;;;68.10;61.80;;;;;;;9.69;74.67;99473.73;110034;1268;21986;-76
2023/04/14 04:51:50;;;;;;;65.80;60.20;;;;;;;9.71;74.57;99477.63;110022;1268;21991;-77
2023/04/14 04:54:26;;;;;;;69.10;62.80;;;;;;;9.74;74.64;99478.19;109681;1268;23170;-75
2023/04/14 04:56:57;;;;;;;64.80;58.70;;;;;;;9.77;74.56;99477.68;110053;1268;22122;-76
2023/04/14 04:59:32;;;;;;;61.40;55.80;;;;;;;9.80;74.46;99477.91;109851;1268;22027;-76
2023/04/14 05:02:16;;;;;;;60.30;54.70;;;;;;;9.79;74.39;99479.67;110232;1268;23689;-76
2023/04/14 05:04:50;;;;;;;59.30;53.70;;;;;;;9.78;74.37;99475.19;109843;1268;23070;-76
2023/04/14 05:07:20;;;;;;;63.50;57.50;;;;;;;9.81;74.43;99473.16;110032;1268;24040;-78
2023/04/14 05:09:56;;;;;;;59.90;53.90;;;;;;;9.82;74.43;99471.34;109878;1268;22050;-75
2023/04/14 05:12:29;;;;;;;59.00;53.30;;;;;;;9.84;74.44;99471.45;110019;1265;22736;-76
2023/04/14 05:15:11;;;;;;;58.90;53.50;;;;;;;9.86;74.53;99470.67;110062;1268;21976;-75
2023/04/14 05:17:48;;;;;;;55.50;49.70;;;;;;;9.89;74.55;99473.46;110017;1268;24174;-74
2023/04/14 05:20:20;;;;;;;53.60;48.20;;;;;;;9.92;74.53;99472.45;109835;1268;21969;-75
2023/04/14 05:22:56;;;;;;;52.60;47.50;;;;;;;9.96;74.39;99472.24;110040;1268;21988;-75
2023/04/14 05:25:29;;;;;;;52.00;47.10;;;;;;;9.97;74.35;99472.36;109901;1262;21972;-76
2023/04/14 05:28:08;;;;;;;52.90;48.00;;;;;;;9.99;74.33;99470.86;109474;1271;21995;-75
2023/04/14 05:30:42;;;;;;;56.50;51.00;;;;;;;10.02;74.18;99472.46;109562;1270;21985;-75
2023/04/14 05:33:16;;;;;;;56.20;51.00;;;;;;;10.06;74.15;99472.64;109730;1271;21979;-75
2023/04/14 05:35:50;;;;;;;58.90;53.20;;;;;;;10.08;74.00;99471.14;109585;1271;24314;-75
2023/04/14 05:38:24;;;;;;;59.00;53.40;;;;;;;10.12;73.94;99470.95;109577;1266;23752;-76
2023/04/14 05:41:04;;;;;;;58.40;52.70;;;;;;;10.16;74.00;99471.10;109818;1270;21997;-76
2023/04/14 05:43:35;;;;;;;58.00;51.80;;;;;;;10.19;74.03;99470.25;109365;1270;22017;-75
2023/04/14 05:46:21;;;;;;;53.20;47.70;;;;;;;10.23;73.85;99467.27;109244;1271;21976;-75
2023/04/14 05:49:00;;;;;;;41.40;37.30;;;;;;;10.27;73.82;99462.55;109730;1271;22026;-76
2023/04/14 05:51:33;;;;;;;42.50;38.40;;;;;;;10.30;73.59;99457.19;109512;1272;21978;-77
2023/04/14 05:54:16;;;;;;;39.40;35.50;;;;;;;10.30;73.47;99450.92;109550;1271;24298;-75
2023/04/14 05:56:52;;;;;;;40.40;35.60;;;;;;;10.30;73.34;99447.59;109653;1271;21982;-75
2023/04/14 05:59:30;;;;;;;42.60;38.50;;;;;;;10.30;73.08;99443.44;109947;1267;21980;-77
2023/04/14 06:02:07;;;;;;;39.30;35.40;;;;;;;10.31;73.15;99443.53;110085;1267;24302;-74
2023/04/14 06:04:38;;;;;;;40.10;36.20;;;;;;;10.34;73.02;99442.38;110127;1267;21969;-75
2023/04/14 06:07:09;;;;;;;38.40;34.60;;;;;;;10.36;72.93;99441.07;110297;1267;21967;-74
2023/04/14 06:09:41;;;;;;;39.70;34.60;;;;;;;10.38;72.87;99439.91;110156;1266;22633;-75
2023/04/14 06:12:15;;;;;;;41.50;37.30;;;;;;;10.43;72.99;99440.21;110684;1260;22390;-75
2023/04/14 06:14:46;;;;;;;42.90;38.50;;;;;;;10.47;72.86;99437.02;110888;1260;21981;-74
2023/04/14 06:17:27;;;;;;;47.40;42.80;;;;;;;10.51;72.65;99434.88;110682;1260;22004;-76
2023/04/14 06:19:58;;;;;;;46.20;41.80;;;;;;;10.51;72.42;99438.73;110366;1266;22015;-75
2023/04/14 06:22:34;;;;;;;43.30;38.90;;;;;;;10.53;72.21;99436.02;110237;1266;22179;-75
2023/04/14 06:25:05;;;;;;;43.50;39.40;;;;;;;10.52;72.29;99438.32;110203;1265;21980;-75
2023/04/14 06:27:46;;;;;;;42.80;38.50;;;;;;;10.58;72.34;99440.66;110100;1266;21983;-76
2023/04/14 06:30:36;;;;;;;43.50;39.20;;;;;;;10.60;72.18;99432.89;109827;1265;21973;-75
2023/04/14 06:33:13;;;;;;;44.70;40.40;;;;;;;10.62;72.10;99432.93;110081;1266;22043;-75
2023/04/14 06:35:44;;;;;;;;;;;;;;;10.64;71.95;99429.52;110733;1260;23683;-74
2023/04/14 06:38:20;;;;;;;44.60;39.90;;;;;;;10.57;71.88;99432.52;110720;1257;21942;-74
2023/04/14 06:40:52;;;;;;;46.60;42.20;;;;;;;10.57;71.90;99430.42;110578;1260;21950;-77
2023/04/14 06:43:28;;;;;;;51.20;46.10;;;;;;;10.58;71.76;99429.85;110711;1260;22001;-74
2023/04/14 06:46:04;;;;;;;55.80;50.30;;;;;;;10.60;71.72;99429.42;110875;1256;21960;-75
2023/04/14 06:48:44;;;;;;;56.60;51.10;;;;;;;10.63;71.82;99424.19;111087;1256;21976;-75
2023/04/14 06:51:17;;;;;;;51.40;45.90;;;;;;;10.72;71.69;99423.21;110946;1256;21975;-75
2023/04/14 06:53:50;;;;;;;46.80;42.00;;;;;;;10.74;71.25;99420.12;110623;1256;283505;-75
2023/04/14 06:56:26;;;;;;;44.30;39.60;;;;;;;10.76;71.06;99413.05;110976;1256;23692;-75
2023/04/14 06:59:05;;;;;;;45.30;40.80;;;;;;;10.79;70.89;99408.40;111030;1256;21963;-74
2023/04/14 07:01:35;;;;;;;42.20;37.90;;;;;;;10.80;70.65;99404.13;111128;1256;21997;-74
2023/04/14 07:04:07;;;;;;;43.80;39.30;;;;;;;10.80;70.41;99399.45;110603;1262;22064;-75
2023/04/14 07:06:38;;;;;;;43.70;39.10;;;;;;;10.83;70.43;99400.51;110751;1262;22585;-75
2023/04/14 07:09:21;;;;;;;41.40;37.20;;;;;;;10.85;70.54;99399.15;110449;1262;23694;-76
2023/04/14 07:11:52;;;;;;;44.60;40.00;;;;;;;10.95;70.60;99399.17;110222;1267;22019;-74
2023/04/14 07:14:23;;;;;;;43.00;38.60;;;;;;;11.06;70.45;99393.18;110224;1267;21974;-75
2023/04/14 07:16:56;;;;;;;39.30;35.40;;;;;;;11.16;70.33;99397.84;109866;1267;21977;-76
2023/04/14 07:19:26;;;;;;;40.90;36.30;;;;;;;11.28;70.31;99394.55;109722;1271;24355;-75
2023/04/14 07:22:03;;;;;;;39.30;35.30;;;;;;;11.43;70.21;99390.77;109522;1270;22710;-75
2023/04/14 07:24:38;;;;;;;41.70;37.20;;;;;;;11.61;70.17;99392.17;109403;1272;22126;-76
2023/04/14 07:27:18;;;;;;;37.60;33.90;;;;;;;11.79;69.71;99392.71;109157;1275;21982;-75
2023/04/14 07:29:53;;;;;;;39.20;34.70;;;;;;;11.94;69.17;99395.88;109621;1267;23603;-75
2023/04/14 07:32:41;;;;;;;37.40;33.60;;;;;;;12.22;69.80;99389.69;109620;1270;22989;-75
2023/04/14 07:35:13;;;;;;;40.40;36.30;;;;;;;12.71;70.14;99387.45;109532;1272;23689;-74
2023/04/14 07:37:52;;;;;;;42.10;37.70;;;;;;;13.18;69.17;99383.08;109603;1268;23963;-75
2023/04/14 07:40:23;;;;;;;39.80;35.40;;;;;;;13.51;67.27;99382.37;109841;1268;21973;-75
2023/04/14 07:43:00;;;;;;;37.80;33.60;;;;;;;13.68;65.56;99379.55;110107;1268;21975;-76
2023/04/14 07:45:38;;;;;;;37.00;33.30;;;;;;;13.78;64.39;99385.33;109720;1267;22000;-76
2023/04/14 07:48:16;;;;;;;38.10;33.10;;;;;;;13.87;63.76;99380.73;109690;1271;22026;-76
2023/04/14 07:50:48;;;;;;;38.10;34.10;;;;;;;14.03;63.17;99374.59;109901;1265;23427;-75
2023/04/14 07:53:42;;;;;;;38.20;33.00;;;;;;;14.18;62.40;99380.38;110452;1265;23612;-75
2023/04/14 07:56:19;;;;;;;37.10;33.30;;;;;;;14.19;61.44;99380.65;110371;1265;21926;-75
2023/04/14 07:59:14;;;;;;;35.90;32.30;;;;;;;14.23;61.24;99378.10;110544;1265;24297;-74
2023/04/14 08:02:02;;;;;;;33.00;29.60;;;;;;;14.31;61.10;99377.91;110199;1265;23791;-75
2023/04/14 08:04:39;;;;;;;33.80;30.30;;;;;;;14.38;60.64;99378.47;110746;1260;21961;-75
2023/04/14 08:07:15;;;;;;;38.80;32.20;;;;;;;14.41;60.03;99379.52;111122;1255;22120;-76
2023/04/14 08:09:51;;;;;;;31.50;28.30;;;;;;;14.47;60.06;99379.45;111080;1255;23837;-76
2023/04/14 08:12:35;;;;;;;31.10;26.50;;;;;;;14.78;61.21;99376.63;111399;1255;23017;-75
2023/04/14 08:15:11;;;;;;;30.60;27.60;;;;;;;15.25;60.12;99382.17;111048;1252;23050;-75
2023/04/14 08:17:47;;;;;;;30.00;27.00;;;;;;;15.44;58.25;99378.55;111137;1256;22001;-75
2023/04/14 08:20:25;;;;;;;31.40;27.30;;;;;;;15.38;56.58;99373.89;111318;1255;22321;-74
2023/04/14 08:23:05;;;;;;;31.30;28.00;;;;;;;15.26;56.45;99376.13;111225;1256;21993;-76
2023/04/14 08:25:37;;;;;;;28.40;25.30;;;;;;;15.20;56.18;99375.36;111191;1255;23452;-75
2023/04/14 08:28:18;;;;;;;29.20;26.20;;;;;;;15.05;55.79;99376.41;110938;1256;21999;-75
2023/04/14 08:30:58;;;;;;;28.10;24.70;;;;;;;14.87;55.90;99376.13;110988;1255;22995;-75
2023/04/14 08:33:38;;;;;;;28.60;25.60;;;;;;;14.88;56.54;99373.67;111014;1256;22109;-75
2023/04/14 08:36:34;;;;;;;29.10;26.20;;;;;;;14.92;56.42;99375.30;110888;1255;21966;-75
2023/04/14 08:39:26;;;;;;;28.70;24.80;;;;;;;14.89;56.41;99373.38;110972;1251;23704;-75
2023/04/14 08:42:13;;;;;;;;;;;;;;;14.91;56.22;99374.31;111002;1256;21940;-74
2023/04/14 08:44:53;;;;;;;31.80;26.90;;;;;;;14.78;56.38;99378.34;111292;1256;23589;-75
2023/04/14 08:47:31;;;;;;;28.30;25.00;;;;;;;14.79;56.99;99377.73;111152;1255;21968;-76
2023/04/14 08:50:21;;;;;;;27.60;25.00;;;;;;;14.94;57.27;99383.05;111223;1256;21947;-78
2023/04/14 08:53:12;;;;;;;;;;;;;;;14.93;56.58;99382.54;111079;1256;21944;-76
2023/04/14 08:55:50;;;;;;;25.30;22.70;;;;;;;14.80;56.63;99383.15;111137;1256;23720;-75
2023/04/14 08:58:30;;;;;;;26.50;23.90;;;;;;;14.81;57.08;99378.69;111056;1254;21968;-76
2023/04/14 09:01:28;;;;;;;25.00;22.50;;;;;;;14.90;57.01;99381.23;110949;1256;21950;-75
2023/04/14 09:04:12;;;;;;;25.70;23.10;;;;;;;14.95;56.94;99379.41;111142;1256;22241;-76
2023/04/14 09:06:57;;;;;;;26.50;23.30;;;;;;;14.92;56.39;99377.93;111097;1254;22538;-75
2023/04/14 09:09:49;;;;;;;26.30;23.50;;;;;;;14.87;56.40;99373.33;111086;1256;22972;-75
2023/04/14 09:12:36;;;;;;;31.80;26.10;;;;;;;14.87;56.67;99374.05;110771;1262;21981;-76
2023/04/14 09:15:10;;;;;;;26.50;23.80;;;;;;;14.90;56.80;99372.95;109864;1269;24295;-76
2023/04/14 09:17:57;;;;;;;23.90;21.20;;;;;;;14.92;57.03;99374.77;110210;1269;22005;-77
2023/04/14 09:20:37;;;;;;;25.70;23.00;;;;;;;15.01;57.35;99371.98;110108;1267;23787;-77
2023/04/14 09:23:11;;;;;;;26.10;23.50;;;;;;;15.13;57.36;99369.40;110094;1268;22414;-76
2023/04/14 09:25:52;;;;;;;23.60;20.90;;;;;;;15.20;57.29;99367.08;109975;1269;21972;-76
2023/04/14 09:28:40;;;;;;;24.80;22.20;;;;;;;15.23;56.94;99369.70;110163;1261;23058;-77
2023/04/14 09:31:51;;;;;;;26.50;22.10;;;;;;;15.19;56.84;99368.20;110412;1263;23607;-77
2023/04/14 09:34:52;;;;;;;24.20;20.60;;;;;;;15.25;57.29;99363.31;111075;1256;22736;-77
2023/04/14 09:37:59;;;;;;;23.20;20.90;;;;;;;15.35;57.15;99361.66;111139;1256;21977;-77
2023/04/14 09:40:35;;;;;;;25.50;22.20;;;;;;;15.41;56.85;99361.04;110767;1258;22502;-77
2023/04/14 09:43:47;;;;;;;23.70;21.30;;;;;;;15.46;56.53;99355.09;110619;1262;23689;-77
2023/04/14 09:46:35;;;;;;;24.50;20.20;;;;;;;15.59;56.88;99353.93;109867;1264;23712;-75
2023/04/14 09:49:16;;;;;;;21.70;18.00;;;;;;;15.71;56.45;99351.09;109927;1268;21973;-77
2023/04/14 09:52:02;;;;;;;21.20;19.10;;;;;;;15.82;56.18;99344.02;109474;1271;23706;-76
2023/04/14 09:54:37;;;;;;;21.70;19.50;;;;;;;15.98;56.08;99342.11;109501;1272;22454;-77
2023/04/14 09:57:32;;;;;;;18.80;16.80;;;;;;;16.17;55.85;99343.64;109426;1272;23107;-76
2023/04/14 10:00:23;;;;;;;;;;;;;;;16.37;55.37;99340.33;109485;1272;22711;-77
2023/04/14 10:03:15;;;;;;;19.20;12.40;;;;;;;16.55;55.02;99332.42;109134;1273;22447;-76
2023/04/14 10:06:14;;;;;;;20.10;12.70;;;;;;;16.85;54.35;99333.60;109263;1270;22747;-76
2023/04/14 10:08:58;;;;;;;13.70;10.60;;;;;;;17.12;53.31;99332.27;108925;1277;23653;-76
2023/04/14 10:12:10;;;;;;;17.70;15.90;;;;;;;17.37;52.17;99330.27;109489;1270;21997;-76
2023/04/14 10:14:47;;;;;;;21.00;15.30;;;;;;;17.47;50.80;99324.98;109511;1273;22788;-77
2023/04/14 10:17:26;;;;;;;16.80;12.90;;;;;;;17.63;50.61;99325.46;109476;1273;22965;-78
2023/04/14 10:20:14;;;;;;;20.60;12.30;;;;;;;17.97;50.50;99322.13;109018;1276;23107;-77
2023/04/14 10:23:15;;;;;;;10.40;9.40;;;;;;;18.39;49.21;99317.65;109158;1274;21983;-79
2023/04/14 10:26:35;;;;;;;11.60;9.50;;;;;;;18.60;47.37;99319.92;109186;1274;23666;-77
2023/04/14 10:29:21;;;;;;;12.40;9.10;;;;;;;19.03;47.46;99314.67;109978;1269;21990;-75
2023/04/14 10:32:15;;;;;;;12.00;8.20;;;;;;;19.51;46.41;99312.52;109818;1267;23496;-77
2023/04/14 10:35:09;;;;;;;10.20;7.00;;;;;;;19.80;44.73;99310.88;110063;1268;21992;-79
2023/04/14 10:37:56;;;;;;;7.10;6.40;;;;;;;19.84;42.49;99308.80;110265;1262;21985;-78
2023/04/14 10:41:08;;;;;;;8.30;6.00;;;;;;;19.83;42.32;99314.67;111035;1257;23727;-76
2023/04/14 10:43:53;;;;;;;6.90;5.50;;;;;;;19.82;41.94;99314.75;110505;1263;21974;-77
2023/04/14 10:47:06;;;;;;;9.40;6.50;;;;;;;19.79;40.55;99301.48;110535;1263;21994;-81
2023/04/14 10:50:02;;;;;;;8.60;4.80;;;;;;;19.81;40.18;99298.42;110402;1263;22040;-76
2023/04/14 10:52:59;;;;;;;6.30;4.10;;;;;;;19.82;39.30;99296.38;110587;1263;22285;-77
2023/04/14 10:55:56;;;;;;;8.60;3.50;;;;;;;19.58;37.58;99298.64;109869;1268;23077;-78
2023/04/14 10:58:56;;;;;;;5.60;4.40;;;;;;;19.30;37.98;99292.39;110015;1269;21986;-77
2023/04/14 11:01:45;;;;;;;9.30;5.10;;;;;;;19.32;38.21;99287.41;109490;1268;21986;-77
2023/04/14 11:04:35;;;;;;;5.10;3.80;;;;;;;19.43;37.45;99292.24;110010;1267;22076;-77
2023/04/14 11:07:20;;;;;;;4.70;3.40;;;;;;;19.31;36.98;99286.40;110096;1268;21974;-77
2023/04/14 11:10:16;;;;;;;7.90;3.90;;;;;;;19.06;37.35;99282.69;110091;1267;22056;-80
2023/04/14 11:13:06;;;;;;;3.90;3.40;;;;;;;18.88;37.69;99281.54;110201;1267;22979;-78
2023/04/14 11:16:10;;;;;;;3.90;3.40;;;;;;;18.75;37.84;99285.27;110077;1266;22063;-78
2023/04/14 11:19:00;;;;;;;7.50;3.80;;;;;;;18.59;37.84;99281.95;110466;1263;23623;-77
2023/04/14 11:21:56;;;;;;;5.40;3.90;;;;;;;18.48;37.96;99270.15;110907;1258;23061;-76
2023/04/14 11:24:47;;;;;;;8.80;3.40;;;;;;;18.43;37.70;99264.66;110908;1258;23093;-78
2023/04/14 11:27:41;;;;;;;5.20;3.40;;;;;;;18.38;37.59;99259.84;110918;1258;23689;-77
2023/04/14 11:30:56;;;;;;;6.20;3.50;;;;;;;18.28;37.52;99261.16;111108;1264;22012;-77
2023/04/14 11:33:54;;;;;;;4.90;3.50;;;;;;;18.21;37.56;99260.44;109787;1268;21966;-76
2023/04/14 11:36:27;;;;;;;7.50;4.00;;;;;;;18.23;37.89;99262.85;110060;1266;21780;-79
2023/04/14 11:39:27;;;;;;;7.20;3.70;;;;;;;18.30;37.99;99261.03;110114;1266;22037;-77
2023/04/14 11:41:59;;;;;;;4.50;3.70;;;;;;;18.36;38.04;99261.23;110494;1267;23704;-76
2023/04/14 11:44:40;;;;;;;4.80;3.50;;;;;;;18.37;37.80;99253.23;110322;1267;22736;-79
2023/04/14 11:47:31;;;;;;;4.20;3.40;;;;;;;18.41;37.91;99256.20;110454;1267;23424;-77
2023/04/14 11:50:04;;;;;;;3.90;3.20;;;;;;;18.43;37.76;99256.04;110583;1263;22111;-77
2023/04/14 11:52:56;;;;;;;6.00;3.80;;;;;;;18.43;37.76;99250.02;110651;1259;21966;-78
2023/04/14 11:55:41;;;;;;;4.00;3.60;;;;;;;18.52;37.76;99249.25;111028;1257;23635;-81
2023/04/14 11:58:26;;;;;;;4.60;3.80;;;;;;;18.61;37.30;99245.81;111141;1257;23723;-79
2023/04/14 12:01:01;;;;;;;4.00;3.50;;;;;;;18.66;37.30;99249.45;111118;1257;21960;-81
2023/04/14 12:03:39;;;;;;;4.40;3.50;;;;;;;18.68;37.13;99247.61;110915;1257;23025;-79
2023/04/14 12:06:17;;;;;;;4.60;4.10;;;;;;;18.73;37.15;99241.71;111080;1257;23092;-77
2023/04/14 12:09:13;;;;;;;7.20;3.60;;;;;;;18.86;36.81;99241.80;110974;1257;22049;-80
2023/04/14 12:11:56;;;;;;;7.90;3.70;;;;;;;18.90;36.18;99239.07;111135;1257;22024;-76
2023/04/14 12:14:54;;;;;;;4.40;3.50;;;;;;;18.86;36.58;99234.25;110785;1260;22025;-77
2023/04/14 12:17:33;;;;;;;4.30;3.30;;;;;;;18.84;36.50;99237.23;110898;1260;22385;-78
2023/04/14 12:20:40;;;;;;;4.30;3.50;;;;;;;18.84;36.41;99239.56;110850;1260;23805;-77
2023/04/14 12:23:11;;;;;;;7.30;4.20;;;;;;;18.78;36.31;99232.17;110874;1260;23069;-78
2023/04/14 12:25:53;;;;;;;8.40;5.40;;;;;;;18.83;36.57;99233.26;110558;1262;23521;-79
2023/04/14 12:29:07;;;;;;;6.40;5.00;;;;;;;18.90;36.21;99233.20;110787;1262;23045;-81
2023/04/14 12:31:44;;;;;;;5.00;3.50;;;;;;;18.88;35.88;99235.83;110795;1262;21976;-79
2023/04/14 12:34:57;;;;;;;5.20;3.60;;;;;;;18.81;35.82;99221.36;110589;1262;23734;-77
2023/04/14 12:37:52;;;;;;;5.90;4.20;;;;;;;18.78;36.12;99213.80;110608;1263;23055;-78